Time;durP1;ratioP1;P1;durP2;ratioP2;P2;SDS_P1;SDS_P2;PMS_P1;PMS_P2;Temp;Humidity;BMP_temperature;BMP_pressure;BME280_temperature;BME280_humidity;BME280_pressure;Samples;Min_cycle;Max_cycle;Signal;HPM_P1;HPM_P2
2022/05/07 00:01:57;;;;;;;12.55;6.68;;;;;;;19.17;53.77;100285.03;4348882;32;33255;-82
2022/05/07 00:04:28;;;;;;;8.27;6.85;;;;;;;19.21;53.87;100293.69;4370035;32;33658;-82
2022/05/07 00:06:57;;;;;;;8.57;6.68;;;;;;;19.05;54.52;100286.75;4362889;32;32692;-82
2022/05/07 00:09:25;;;;;;;7.25;6.22;;;;;;;19.12;54.27;100292.53;4362634;32;32985;-82
2022/05/07 00:11:53;;;;;;;8.43;7.47;;;;;;;19.37;53.41;100286.25;4363162;32;33502;-82
2022/05/07 00:14:21;;;;;;;7.50;6.68;;;;;;;19.11;54.45;100285.47;4361358;32;33642;-83
2022/05/07 00:19:36;;;;;;;8.75;7.28;;;;;;;19.21;53.76;100291.87;4357527;32;33973;-82
2022/05/07 00:22:04;;;;;;;11.70;7.03;;;;;;;19.19;53.70;100294.66;4362614;32;33594;-83
2022/05/07 00:24:32;;;;;;;11.95;6.37;;;;;;;19.11;54.25;100291.66;4359344;32;33039;-82
2022/05/07 00:27:00;;;;;;;8.98;7.22;;;;;;;18.84;55.07;100282.91;4368287;32;33060;-82
2022/05/07 00:29:28;;;;;;;7.68;6.45;;;;;;;18.83;54.90;100291.91;4364053;32;33925;-82
2022/05/07 00:31:56;;;;;;;7.72;6.25;;;;;;;18.87;54.85;100291.59;4351685;32;32653;-82
2022/05/07 00:34:25;;;;;;;11.23;6.00;;;;;;;18.96;54.90;100299.94;4363121;32;33647;-83
2022/05/07 00:36:54;;;;;;;8.65;6.47;;;;;;;19.08;53.58;100296.38;4357454;32;33202;-82
2022/05/07 00:39:21;;;;;;;6.75;6.05;;;;;;;18.93;53.93;100293.81;4348925;32;33042;-82
2022/05/07 00:41:49;;;;;;;10.55;6.25;;;;;;;19.08;53.73;100302.59;4363743;32;34060;-82
2022/05/07 00:44:17;;;;;;;6.65;6.05;;;;;;;19.36;52.70;100301.47;4364371;32;34082;-83
2022/05/07 00:46:50;;;;;;;7.37;6.32;;;;;;;19.36;52.57;100301.47;4363018;32;33750;-83
2022/05/07 00:49:18;;;;;;;;;;;;;;;19.32;52.86;100304.47;4360220;32;33261;-85
2022/05/07 00:51:46;;;;;;;7.12;6.03;;;;;;;19.26;52.43;100305.78;4350738;32;34107;-84
2022/05/07 00:54:17;;;;;;;6.75;5.28;;;;;;;19.65;50.83;100291.37;4359437;32;33581;-83
2022/05/07 00:56:46;;;;;;;8.48;5.05;;;;;;;19.52;51.28;100293.19;4362663;32;33045;-83
2022/05/07 00:59:14;;;;;;;6.80;5.80;;;;;;;19.47;51.17;100287.31;4338856;32;32620;-83
2022/05/07 01:01:43;;;;;;;5.72;5.22;;;;;;;19.57;50.92;100288.34;4369552;32;33137;-82
2022/05/07 01:04:12;;;;;;;9.20;5.45;;;;;;;19.54;50.87;100288.56;4337888;32;33734;-83
2022/05/07 01:06:41;;;;;;;6.87;5.55;;;;;;;19.55;50.67;100292.94;4363690;32;34232;-83
2022/05/07 01:09:10;;;;;;;6.80;4.82;;;;;;;19.47;50.98;100286.47;4343935;32;34109;-83
2022/05/07 01:11:42;;;;;;;6.85;5.10;;;;;;;19.35;51.25;100289.06;4367304;32;34243;-82
2022/05/07 01:14:10;;;;;;;5.67;5.10;;;;;;;19.40;50.88;100289.56;4366849;32;33617;-83
2022/05/07 01:16:38;;;;;;;7.80;5.50;;;;;;;19.43;50.72;100286.69;4356638;32;33457;-83
2022/05/07 01:19:06;;;;;;;5.80;5.00;;;;;;;19.50;50.57;100286.22;4370021;32;33403;-83
2022/05/07 01:21:34;;;;;;;8.55;5.53;;;;;;;19.53;50.67;100289.53;4345082;32;33026;-83
2022/05/07 01:24:03;;;;;;;5.78;4.78;;;;;;;19.38;51.06;100282.62;4364050;32;34283;-84
2022/05/07 01:26:36;;;;;;;7.40;5.28;;;;;;;19.31;51.39;100286.69;4369104;32;33383;-83
2022/05/07 01:29:05;;;;;;;5.70;5.10;;;;;;;19.44;50.86;100295.56;4354263;32;34642;-83
2022/05/07 01:31:34;;;;;;;9.98;5.37;;;;;;;19.44;50.89;100290.22;4373652;32;34477;-84
2022/05/07 01:34:03;;;;;;;6.03;5.43;;;;;;;19.51;50.46;100288.78;4373231;32;33742;-84
2022/05/07 01:36:31;;;;;;;7.80;4.97;;;;;;;19.57;50.27;100284.81;4363897;32;33317;-84
2022/05/07 01:39:01;;;;;;;8.40;5.35;;;;;;;19.60;50.17;100281.94;4363532;32;33581;-85
2022/05/07 01:41:29;;;;;;;5.78;5.15;;;;;;;19.25;50.93;100284.47;4372664;32;33381;-84
2022/05/07 01:43:58;;;;;;;6.10;5.37;;;;;;;19.36;50.79;100279.19;4352068;32;144768;-84
2022/05/07 01:49:14;;;;;;;6.90;5.72;;;;;;;19.20;51.08;100284.81;4370375;32;32667;-84
2022/05/07 01:51:43;;;;;;;7.55;5.60;;;;;;;19.28;50.87;100276.25;4358781;32;32932;-84
2022/05/07 01:54:11;;;;;;;9.50;5.97;;;;;;;19.41;50.49;100275.22;4363495;32;33022;-85
2022/05/07 01:56:40;;;;;;;5.65;5.05;;;;;;;19.22;51.34;100276.66;4362644;32;33303;-85
2022/05/07 01:59:08;;;;;;;6.75;5.12;;;;;;;19.30;50.94;100279.66;4350913;32;32975;-84
2022/05/07 02:01:36;;;;;;;7.22;5.82;;;;;;;19.10;51.69;100273.91;4348403;32;33088;-84
2022/05/07 02:04:06;;;;;;;5.82;5.22;;;;;;;19.00;52.21;100272.84;4366851;32;34544;-85
2022/05/07 02:06:34;;;;;;;8.90;4.93;;;;;;;18.86;52.21;100270.31;4349147;32;32978;-85
2022/05/07 02:09:05;;;;;;;6.05;4.97;;;;;;;19.06;51.51;100277.75;4369314;32;32508;-85
2022/05/07 02:11:34;;;;;;;8.47;4.93;;;;;;;18.97;51.65;100278.41;4369632;32;33702;-85
2022/05/07 02:14:03;;;;;;;5.68;4.70;;;;;;;19.01;51.59;100271.88;4374331;32;32514;-85
2022/05/07 02:16:32;;;;;;;5.95;5.35;;;;;;;18.86;51.93;100279.19;4363027;32;33407;-84
2022/05/07 02:19:00;;;;;;;6.25;5.65;;;;;;;18.96;51.69;100271.34;4362790;32;34039;-84
2022/05/07 02:21:28;;;;;;;8.80;4.95;;;;;;;18.83;51.90;100276.72;4362741;32;33886;-83
2022/05/07 02:23:56;;;;;;;6.22;4.70;;;;;;;18.93;51.84;100276.91;4367559;32;33206;-83
2022/05/07 02:26:24;;;;;;;6.72;4.70;;;;;;;19.02;51.47;100275.41;4348904;32;31777;-83
2022/05/07 02:28:52;;;;;;;6.55;5.00;;;;;;;18.95;51.72;100280.34;4355281;32;33728;-83
2022/05/07 02:31:20;;;;;;;5.53;4.75;;;;;;;18.67;52.75;100274.22;4350715;32;33898;-82
2022/05/07 02:33:48;;;;;;;5.15;4.72;;;;;;;18.76;52.39;100277.28;4370217;32;32754;-83
2022/05/07 02:36:17;;;;;;;5.40;4.90;;;;;;;18.58;52.91;100280.22;4363054;32;32641;-83
2022/05/07 02:38:44;;;;;;;6.53;4.97;;;;;;;18.41;53.41;100272.50;4368253;32;32901;-83
2022/05/07 02:44:06;;;;;;;5.55;4.95;;;;;;;18.47;53.07;100273.88;4348807;32;32299;-83
2022/05/07 02:46:35;;;;;;;5.53;5.00;;;;;;;18.16;53.94;100276.84;4362354;32;33041;-83
2022/05/07 02:49:09;;;;;;;6.55;5.28;;;;;;;18.34;53.46;100274.75;4370140;32;33821;-83
2022/05/07 02:51:38;;;;;;;7.95;5.68;;;;;;;18.33;53.55;100273.03;4364408;32;33131;-83
2022/05/07 02:54:08;;;;;;;5.93;4.87;;;;;;;17.70;54.85;100278.16;4364911;32;33490;-83
2022/05/07 02:56:36;;;;;;;7.35;4.90;;;;;;;18.32;53.20;100278.47;4363471;32;32967;-83
2022/05/07 02:59:04;;;;;;;7.47;4.53;;;;;;;18.54;52.56;100278.72;4364187;32;32741;-84
2022/05/07 03:01:41;;;;;;;5.15;4.65;;;;;;;18.31;53.58;100279.44;4360577;32;34076;-84
2022/05/07 03:04:09;;;;;;;14.40;5.10;;;;;;;18.40;53.46;100278.81;4343413;32;33344;-84
2022/05/07 03:06:38;;;;;;;5.00;4.53;;;;;;;18.50;53.30;100277.22;4374303;32;33148;-84
2022/05/07 03:09:06;;;;;;;6.10;4.90;;;;;;;18.17;54.10;100286.56;4369241;32;32789;-84
2022/05/07 03:11:34;;;;;;;6.43;5.37;;;;;;;18.28;53.63;100274.31;4364711;32;32729;-84
2022/05/07 03:14:04;;;;;;;7.62;4.97;;;;;;;18.46;52.84;100283.72;4370497;32;34191;-83
2022/05/07 03:16:32;;;;;;;6.00;3.80;;;;;;;18.57;52.33;100270.50;4354586;32;32184;-84
2022/05/07 03:19:02;;;;;;;5.75;4.35;;;;;;;18.55;52.25;100271.53;4360948;32;32761;-84
2022/05/07 03:21:31;;;;;;;4.60;4.20;;;;;;;18.67;51.86;100276.06;4357374;32;32665;-83
2022/05/07 03:23:58;;;;;;;4.25;3.85;;;;;;;18.56;52.00;100287.50;4358932;32;33527;-83
2022/05/07 03:26:26;;;;;;;4.78;4.20;;;;;;;18.58;51.96;100282.03;4358727;32;32011;-84
2022/05/07 03:28:56;;;;;;;7.55;4.07;;;;;;;18.64;51.88;100285.13;4364401;32;33828;-84
2022/05/07 03:31:25;;;;;;;6.70;5.15;;;;;;;18.61;51.74;100281.81;4367875;32;33697;-84
2022/05/07 03:33:54;;;;;;;6.12;4.72;;;;;;;18.49;51.95;100278.19;4369533;32;33525;-83
2022/05/07 03:36:24;;;;;;;6.28;4.00;;;;;;;18.53;51.89;100282.34;4351816;32;32427;-83
2022/05/07 03:38:53;;;;;;;6.45;4.57;;;;;;;18.62;51.77;100284.41;4367169;32;32918;-83
2022/05/07 03:41:24;;;;;;;6.87;4.80;;;;;;;18.62;51.73;100286.22;4368030;32;34156;-84
2022/05/07 03:43:56;;;;;;;5.20;4.70;;;;;;;18.62;51.69;100280.87;4371901;32;33853;-85
2022/05/07 03:46:27;;;;;;;5.93;4.20;;;;;;;18.43;52.23;100289.31;4370589;32;33307;-84
2022/05/07 03:48:57;;;;;;;5.40;4.82;;;;;;;18.53;52.11;100290.38;4361099;32;33274;-82
2022/05/07 03:51:26;;;;;;;7.50;5.03;;;;;;;18.57;52.34;100291.87;4352205;32;33289;-83
2022/05/07 03:53:54;;;;;;;4.37;3.97;;;;;;;18.40;53.09;100285.00;4362348;32;34432;-83
2022/05/07 03:56:28;;;;;;;8.10;4.95;;;;;;;18.39;53.01;100294.00;4370781;32;35071;-83
2022/05/07 03:58:57;;;;;;;5.05;4.55;;;;;;;18.27;53.44;100296.62;4352240;32;32882;-83
2022/05/07 04:01:26;;;;;;;5.87;4.32;;;;;;;18.40;53.09;100294.84;4363541;32;33664;-83
2022/05/07 04:03:54;;;;;;;5.85;5.25;;;;;;;18.33;53.33;100293.56;4353089;32;33008;-83
2022/05/07 04:06:23;;;;;;;6.57;5.22;;;;;;;18.14;54.04;100296.62;4341052;32;34422;-83
2022/05/07 04:08:51;;;;;;;9.85;4.95;;;;;;;18.37;53.34;100292.38;4355134;32;33172;-83
2022/05/07 04:11:20;;;;;;;6.03;4.72;;;;;;;18.01;54.54;100296.59;4354026;32;34376;-83
2022/05/07 04:13:48;;;;;;;5.60;4.97;;;;;;;18.15;53.77;100299.19;4354231;32;33138;-83
2022/05/07 04:16:18;;;;;;;9.25;4.45;;;;;;;18.14;53.87;100302.84;4354371;32;31996;-83
2022/05/07 04:18:49;;;;;;;5.50;5.00;;;;;;;18.31;53.54;100295.47;4343388;32;34604;-83
2022/05/07 04:21:17;;;;;;;6.45;5.75;;;;;;;18.31;53.86;100300.81;4339967;32;32345;-83
2022/05/07 04:23:46;;;;;;;9.63;5.40;;;;;;;18.29;54.00;100303.62;4360959;32;33424;-83
2022/05/07 04:26:15;;;;;;;6.45;5.12;;;;;;;18.07;54.47;100304.19;4357453;32;31958;-82
2022/05/07 04:28:45;;;;;;;5.30;4.78;;;;;;;18.39;53.58;100302.03;4340787;32;33374;-83
2022/05/07 04:31:16;;;;;;;6.43;5.32;;;;;;;18.48;53.12;100300.53;4353365;32;33646;-83
2022/05/07 04:33:46;;;;;;;9.05;5.70;;;;;;;18.39;53.74;100298.50;4355996;32;33054;-82
2022/05/07 04:36:17;;;;;;;7.03;5.20;;;;;;;18.08;54.56;100300.53;4343121;32;33484;-82
2022/05/07 04:38:45;;;;;;;19.60;5.87;;;;;;;17.86;55.33;100310.97;4354602;32;32388;-81
2022/05/07 04:41:14;;;;;;;6.93;5.43;;;;;;;18.07;54.82;100306.84;4340800;32;33271;-82
2022/05/07 04:43:45;;;;;;;6.05;5.35;;;;;;;18.15;54.25;100307.22;4358389;32;35290;-81
2022/05/07 04:46:14;;;;;;;7.65;5.25;;;;;;;18.24;54.05;100311.09;4366611;32;34084;-83
2022/05/07 04:48:46;;;;;;;6.60;4.65;;;;;;;18.14;54.30;100305.50;4357946;32;34669;-83
2022/05/07 04:51:25;;;;;;;5.47;4.97;;;;;;;18.21;53.57;100305.09;4362443;32;34461;-83
2022/05/07 04:54:09;;;;;;;9.88;5.40;;;;;;;18.41;53.69;100302.75;4356743;32;32059;-83
2022/05/07 04:56:43;;;;;;;5.57;4.68;;;;;;;18.10;55.12;100312.00;4357608;32;34420;-83
2022/05/07 04:59:21;;;;;;;5.40;4.62;;;;;;;18.58;52.87;100303.44;4365092;32;33649;-83
2022/05/07 05:01:56;;;;;;;6.93;5.47;;;;;;;18.38;53.52;100303.00;4351835;32;33917;-83
2022/05/07 05:04:26;;;;;;;4.95;4.45;;;;;;;18.54;53.13;100309.94;4337526;32;33282;-83
2022/05/07 05:06:55;;;;;;;6.35;4.75;;;;;;;18.57;52.85;100307.94;4341446;32;32678;-84
2022/05/07 05:09:24;;;;;;;5.93;5.00;;;;;;;17.93;55.15;100317.59;4356560;32;33621;-84
2022/05/07 05:11:56;;;;;;;6.72;4.70;;;;;;;18.41;53.56;100317.94;4346066;32;33070;-84
2022/05/07 05:17:11;;;;;;;7.57;4.45;;;;;;;18.54;53.47;100305.47;4365446;32;32626;-83
2022/05/07 05:19:41;;;;;;;6.15;4.80;;;;;;;18.82;52.68;100311.59;4355226;32;33702;-83
2022/05/07 05:22:15;;;;;;;6.32;4.90;;;;;;;18.87;52.50;100315.66;4341092;32;31018;-85
2022/05/07 05:27:31;;;;;;;8.20;5.30;;;;;;;18.53;54.42;100325.16;4355408;32;34149;-83
2022/05/07 05:30:00;;;;;;;6.53;5.37;;;;;;;18.71;53.61;100320.38;4338221;32;32980;-80
2022/05/07 05:32:30;;;;;;;7.00;5.12;;;;;;;18.91;52.88;100316.31;4351757;32;34012;-81
2022/05/07 05:35:00;;;;;;;6.10;4.78;;;;;;;18.81;53.85;100325.97;4341264;32;33101;-80
2022/05/07 05:37:35;;;;;;;6.25;4.97;;;;;;;19.13;52.93;100316.53;4330947;32;32222;-82
2022/05/07 05:40:12;;;;;;;6.85;4.80;;;;;;;19.03;52.66;100315.44;4367192;32;33078;-83
2022/05/07 05:42:48;;;;;;;7.05;5.37;;;;;;;19.19;52.05;100315.22;4356899;32;33919;-83
2022/05/07 05:45:17;;;;;;;5.82;4.90;;;;;;;19.03;53.31;100309.22;4357247;32;33711;-83
2022/05/07 05:47:46;;;;;;;6.18;5.35;;;;;;;19.21;51.91;100323.12;4336750;32;33702;-83
2022/05/07 05:50:18;;;;;;;6.75;5.37;;;;;;;18.85;52.61;100319.44;4354093;32;34472;-82
2022/05/07 05:52:58;;;;;;;6.80;5.62;;;;;;;18.85;53.31;100322.13;4357122;32;31576;-81
2022/05/07 05:55:27;;;;;;;6.80;5.97;;;;;;;18.91;53.05;100322.53;4338830;32;34262;-82
2022/05/07 05:57:57;;;;;;;8.20;5.25;;;;;;;18.97;53.04;100318.56;4369087;32;33087;-82
2022/05/07 06:00:33;;;;;;;6.55;5.37;;;;;;;18.88;53.28;100320.06;4353197;32;33521;-82
2022/05/07 06:03:07;;;;;;;7.87;5.43;;;;;;;19.16;53.27;100321.63;4351095;32;33585;-83
2022/05/07 06:05:39;;;;;;;6.40;5.40;;;;;;;19.19;53.08;100325.94;4353306;32;33477;-84
2022/05/07 06:08:20;;;;;;;6.40;5.75;;;;;;;19.38;52.00;100330.84;4334965;32;32568;-82
2022/05/07 06:10:54;;;;;;;5.47;4.95;;;;;;;19.26;51.96;100326.34;4341023;32;32456;-82
2022/05/07 06:13:29;;;;;;;7.85;5.62;;;;;;;19.49;51.73;100327.38;4348448;32;33305;-83
2022/05/07 06:15:57;;;;;;;7.18;5.10;;;;;;;19.33;52.06;100323.12;4328572;32;33968;-82
2022/05/07 06:18:26;;;;;;;8.75;5.30;;;;;;;19.61;51.16;100326.53;4343290;32;33298;-84
2022/05/07 06:21:03;;;;;;;7.57;4.93;;;;;;;19.74;51.48;100326.47;4346548;32;34092;-82
2022/05/07 06:23:40;;;;;;;7.60;5.10;;;;;;;19.85;50.38;100331.91;4356834;32;33464;-83
2022/05/07 06:29:01;;;;;;;5.32;4.82;;;;;;;19.27;52.25;100328.91;4364931;32;33160;-83
2022/05/07 06:31:39;;;;;;;6.65;4.75;;;;;;;19.17;52.18;100328.69;4349069;32;34358;-82
2022/05/07 06:34:10;;;;;;;7.00;5.20;;;;;;;19.37;51.56;100329.09;4347302;32;32951;-83
2022/05/07 06:36:42;;;;;;;8.30;5.45;;;;;;;19.14;52.71;100328.94;4366143;32;34729;-83
2022/05/07 06:39:10;;;;;;;7.50;5.45;;;;;;;19.31;52.67;100326.88;4363733;32;32696;-83
2022/05/07 06:41:38;;;;;;;7.53;5.15;;;;;;;19.28;52.41;100327.09;4361948;32;35328;-82
2022/05/07 06:44:07;;;;;;;6.30;5.25;;;;;;;19.54;52.80;100331.44;4341529;32;32967;-81
2022/05/07 06:46:36;;;;;;;6.47;5.72;;;;;;;19.03;52.72;100334.19;4352990;32;34369;-82
2022/05/07 06:49:07;;;;;;;8.68;5.55;;;;;;;19.00;53.53;100333.56;4351990;32;33766;-82
2022/05/07 06:51:56;;;;;;;9.95;6.00;;;;;;;19.07;52.82;100332.16;4353020;32;35066;-82
2022/05/07 06:54:25;;;;;;;8.85;5.40;;;;;;;19.08;53.26;100329.34;4334333;32;33219;-85
2022/05/07 06:56:53;;;;;;;5.70;5.15;;;;;;;19.16;53.22;100329.66;4344476;32;33122;-84
2022/05/07 06:59:21;;;;;;;6.03;5.22;;;;;;;19.62;52.39;100329.09;4361659;32;32489;-84
2022/05/07 07:02:03;;;;;;;7.07;5.28;;;;;;;19.76;51.73;100328.06;4350972;32;36069;-84
2022/05/07 07:04:31;;;;;;;8.85;5.57;;;;;;;19.60;51.42;100328.31;4341866;32;33179;-84
2022/05/07 07:07:01;;;;;;;11.20;5.62;;;;;;;19.30;52.13;100325.16;4346106;32;32120;-84
2022/05/07 07:09:36;;;;;;;9.25;5.70;;;;;;;19.27;52.84;100330.72;4353136;32;33438;-84
2022/05/07 07:12:09;;;;;;;6.18;5.57;;;;;;;19.31;52.95;100329.53;4349000;32;36481;-84
2022/05/07 07:14:53;;;;;;;8.73;5.78;;;;;;;19.32;52.66;100336.59;4361066;32;34657;-83
2022/05/07 07:17:27;;;;;;;9.68;5.87;;;;;;;19.73;51.75;100333.66;4333583;32;32908;-84
2022/05/07 07:19:57;;;;;;;6.45;5.85;;;;;;;19.59;52.31;100329.25;4360915;32;31518;-84
2022/05/07 07:22:29;;;;;;;6.20;5.60;;;;;;;19.71;51.56;100338.28;4344364;32;33158;-84
2022/05/07 07:25:02;;;;;;;6.43;5.62;;;;;;;19.98;50.91;100339.88;4334557;32;33468;-84
2022/05/07 07:27:30;;;;;;;10.07;5.50;;;;;;;20.11;50.52;100336.16;4362420;32;32682;-84
2022/05/07 07:30:01;;;;;;;8.07;5.18;;;;;;;20.03;51.11;100343.91;4339521;32;32649;-83
2022/05/07 07:32:32;;;;;;;6.82;5.35;;;;;;;20.01;51.47;100335.16;4340499;32;34173;-82
2022/05/07 07:35:08;;;;;;;6.60;5.07;;;;;;;19.92;51.27;100336.69;4333234;32;34335;-83
2022/05/07 07:37:37;;;;;;;9.38;5.20;;;;;;;19.97;53.22;100344.38;4345026;32;33498;-85
2022/05/07 07:40:15;;;;;;;5.95;5.35;;;;;;;19.93;51.51;100345.56;4348308;32;31142;-84
2022/05/07 07:42:48;;;;;;;7.15;5.87;;;;;;;20.07;52.88;100341.87;4354184;32;33173;-85
2022/05/07 07:48:04;;;;;;;6.72;5.18;;;;;;;20.12;50.13;100343.22;4345428;32;33602;-84
2022/05/07 07:50:36;;;;;;;6.00;4.60;;;;;;;20.36;51.32;100342.34;4344465;32;32030;-87
2022/05/07 07:53:10;;;;;;;6.95;5.05;;;;;;;20.57;50.30;100342.59;4338782;32;31807;-84
2022/05/07 07:55:44;;;;;;;6.05;5.45;;;;;;;20.49;49.92;100340.50;4345122;32;34074;-84
2022/05/07 07:58:13;;;;;;;5.70;5.12;;;;;;;20.45;50.50;100347.03;4344905;32;34162;-85
2022/05/07 08:00:44;;;;;;;6.25;5.60;;;;;;;20.43;49.32;100340.94;4350916;32;32757;-88
2022/05/07 08:03:16;;;;;;;5.83;5.23;;;;;;;20.50;49.16;100339.50;4341951;32;33542;-84
2022/05/07 08:05:52;;;;;;;6.25;5.60;;;;;;;20.52;49.79;100340.28;4363378;32;34891;-84
2022/05/07 08:14:00;;;;;;;6.90;5.55;;;;;;;20.70;48.91;100341.53;4360865;32;33314;-84
2022/05/07 08:16:30;;;;;;;8.45;4.47;;;;;;;20.83;48.71;100343.25;4350020;32;31456;-84
2022/05/07 08:19:04;;;;;;;6.47;5.18;;;;;;;20.85;49.60;100336.81;4351375;32;30448;-84
2022/05/07 08:21:36;;;;;;;5.68;5.15;;;;;;;20.35;49.63;100348.69;4350267;32;31944;-84
2022/05/07 08:24:06;;;;;;;6.95;5.35;;;;;;;20.76;49.21;100342.03;4365655;32;33809;-85
2022/05/07 08:26:37;;;;;;;6.25;5.60;;;;;;;20.64;48.88;100339.31;4353479;32;33517;-87
2022/05/07 08:29:21;;;;;;;6.90;5.53;;;;;;;20.71;48.79;100345.94;4351940;32;33569;-85
2022/05/07 08:31:51;;;;;;;5.40;4.90;;;;;;;20.95;49.11;100342.31;4342744;32;32495;-85
2022/05/07 08:34:23;;;;;;;7.47;5.80;;;;;;;21.29;48.27;100339.66;4364944;32;33653;-85
2022/05/07 08:36:56;;;;;;;5.90;5.35;;;;;;;21.16;47.75;100343.28;4352267;32;32993;-85
2022/05/07 08:39:25;;;;;;;6.70;5.53;;;;;;;21.51;48.13;100350.41;4354962;32;34366;-85
2022/05/07 08:41:54;;;;;;;5.45;4.93;;;;;;;21.27;47.56;100346.94;4341859;32;33427;-85
2022/05/07 08:44:25;;;;;;;5.43;4.93;;;;;;;21.49;46.67;100341.59;4347523;32;32612;-85
2022/05/07 08:46:54;;;;;;;;;;;;;;;21.46;47.75;100352.63;4340158;32;32550;-85
2022/05/07 08:49:23;;;;;;;7.82;5.65;;;;;;;21.32;48.16;100356.41;4341758;32;33758;-86
2022/05/07 08:51:55;;;;;;;7.43;5.85;;;;;;;21.37;47.56;100358.72;4352104;32;32374;-86
2022/05/07 08:54:30;;;;;;;9.05;6.55;;;;;;;21.86;47.22;100352.06;4344334;32;33556;-86
2022/05/07 08:57:12;;;;;;;10.93;5.87;;;;;;;21.85;49.80;100353.06;4358804;32;35505;-85
2022/05/07 08:59:44;;;;;;;9.60;5.43;;;;;;;22.47;44.12;100355.06;4352361;32;33391;-85
2022/05/07 09:02:12;;;;;;;6.37;5.47;;;;;;;22.41;44.38;100344.81;4364461;32;31232;-85
2022/05/07 09:04:41;;;;;;;6.30;5.28;;;;;;;22.18;45.65;100347.59;4334831;32;32755;-85
2022/05/07 09:07:16;;;;;;;9.30;5.80;;;;;;;22.38;45.20;100343.22;4347172;32;33888;-84
2022/05/07 09:09:51;;;;;;;9.43;4.68;;;;;;;22.70;43.46;100339.66;4352357;32;33540;-84
2022/05/07 09:12:29;;;;;;;7.93;5.15;;;;;;;22.59;44.85;100345.91;4352521;32;32629;-84
2022/05/07 09:17:56;;;;;;;6.95;5.75;;;;;;;22.95;41.28;100339.25;4366248;32;34714;-84
2022/05/07 09:20:29;;;;;;;6.90;5.00;;;;;;;23.36;42.67;100336.59;4330633;32;32720;-84
2022/05/07 09:23:00;;;;;;;4.50;4.10;;;;;;;23.31;42.40;100331.66;4347254;32;31046;-85
2022/05/07 09:25:30;;;;;;;5.90;4.35;;;;;;;23.75;39.98;100333.06;4350029;32;34754;-84
2022/05/07 09:28:03;;;;;;;6.03;5.45;;;;;;;23.28;41.02;100331.06;4341148;32;32834;-85
2022/05/07 09:30:34;;;;;;;7.60;4.37;;;;;;;22.85;41.30;100332.94;4348830;32;32874;-84
2022/05/07 09:33:06;;;;;;;5.10;4.60;;;;;;;23.05;39.67;100328.53;4352886;32;33192;-84
2022/05/07 09:35:49;;;;;;;5.80;4.25;;;;;;;23.31;39.80;100325.37;4350243;32;34458;-85
2022/05/07 09:38:26;;;;;;;6.53;4.40;;;;;;;23.31;40.49;100319.97;4352270;32;33644;-84
2022/05/07 09:40:55;;;;;;;6.85;4.10;;;;;;;22.99;39.84;100323.69;4328924;32;32955;-85
2022/05/07 09:43:26;;;;;;;6.32;4.32;;;;;;;22.88;39.59;100321.91;4340666;32;32994;-84
2022/05/07 09:45:57;;;;;;;4.60;4.20;;;;;;;23.43;40.06;100324.28;4352435;32;31718;-85
2022/05/07 09:48:34;;;;;;;4.80;4.05;;;;;;;23.50;40.09;100315.53;4344011;32;33411;-85
2022/05/07 09:51:02;;;;;;;7.75;4.80;;;;;;;23.42;40.75;100314.50;4352281;32;34528;-85
2022/05/07 09:59:16;;;;;;;6.28;3.95;;;;;;;23.91;37.28;100304.72;4354172;32;33991;-85
2022/05/07 10:02:13;;;;;;;3.90;3.60;;;;;;;23.74;38.42;100304.41;4341186;32;34061;-85
2022/05/07 10:05:08;;;;;;;6.20;4.00;;;;;;;23.71;38.41;100307.38;4354212;32;33902;-85
2022/05/07 10:07:41;;;;;;;;;;;;;;;23.61;38.14;100293.00;4366011;32;32269;-85
2022/05/07 10:10:16;;;;;;;6.53;3.85;;;;;;;23.42;38.74;100295.66;4354928;32;33793;-85
2022/05/07 10:12:49;;;;;;;4.28;3.83;;;;;;;23.96;39.04;100289.81;4351428;32;33525;-84
2022/05/07 10:15:23;;;;;;;6.25;4.00;;;;;;;24.04;40.65;100293.66;4355587;32;33406;-87
2022/05/07 10:18:04;;;;;;;9.38;4.00;;;;;;;24.53;36.39;100287.25;4353457;32;33461;-87
2022/05/07 10:20:44;;;;;;;7.05;3.97;;;;;;;24.27;36.65;100285.13;4357792;32;34512;-88
2022/05/07 10:23:29;;;;;;;5.68;3.53;;;;;;;24.81;35.32;100279.22;4350389;32;33526;-88
2022/05/07 10:26:04;;;;;;;5.32;3.85;;;;;;;24.85;39.14;100277.94;4366878;32;33946;-87
2022/05/07 10:28:55;;;;;;;5.00;3.67;;;;;;;24.66;40.02;100278.84;4365389;32;34320;-87
2022/05/07 10:31:26;;;;;;;6.97;4.10;;;;;;;24.92;35.67;100276.34;4366996;32;34318;-87
2022/05/07 10:33:55;;;;;;;3.85;3.45;;;;;;;25.17;34.84;100281.13;4341125;32;33636;-87
2022/05/07 10:36:33;;;;;;;4.12;3.65;;;;;;;24.82;37.73;100275.53;4341855;32;32629;-87
2022/05/07 10:39:09;;;;;;;5.25;3.40;;;;;;;25.44;34.21;100268.59;4344883;32;33185;-88
2022/05/07 10:41:49;;;;;;;4.05;3.65;;;;;;;25.16;34.39;100265.91;4354582;32;30913;-88
2022/05/07 10:44:33;;;;;;;5.95;3.03;;;;;;;25.59;33.47;100271.63;4343395;32;33405;-88
2022/05/07 10:47:11;;;;;;;8.18;4.22;;;;;;;25.40;33.92;100267.19;4331074;32;32708;-88
2022/05/07 10:49:57;;;;;;;5.87;3.53;;;;;;;24.98;35.41;100268.50;4356947;32;34066;-87
2022/05/07 10:52:41;;;;;;;4.62;3.75;;;;;;;25.36;33.80;100269.34;4356033;32;34480;-88
2022/05/07 10:55:13;;;;;;;3.65;3.35;;;;;;;25.62;32.84;100255.94;4355485;32;33488;-87
2022/05/07 10:57:48;;;;;;;9.77;3.83;;;;;;;25.20;34.55;100258.34;4365349;32;32198;-86
2022/05/07 11:00:24;;;;;;;6.25;4.30;;;;;;;25.52;33.29;100260.56;4355528;32;32980;-87
2022/05/07 11:03:00;;;;;;;5.07;3.92;;;;;;;24.56;34.65;100256.41;4353892;32;33239;-88
2022/05/07 11:05:34;;;;;;;5.97;4.72;;;;;;;24.30;35.95;100257.00;4349642;32;33861;-87
2022/05/07 11:08:07;;;;;;;6.28;4.12;;;;;;;24.21;36.03;100258.72;4340206;32;32448;-88
2022/05/07 11:13:14;;;;;;;5.93;2.97;;;;;;;24.75;35.96;100249.12;4362803;32;33192;-87
2022/05/07 11:15:50;;;;;;;3.22;2.92;;;;;;;24.89;36.80;100246.94;4356773;32;34154;-87
2022/05/07 11:18:20;;;;;;;5.80;3.05;;;;;;;24.86;34.57;100248.06;4360822;32;33071;-88
2022/05/07 11:21:23;;;;;;;4.93;3.58;;;;;;;24.94;32.95;100255.44;4356280;32;32742;-86
2022/05/07 11:23:56;;;;;;;4.10;3.08;;;;;;;24.85;34.79;100250.94;4358790;32;32597;-87
2022/05/07 11:26:25;;;;;;;6.28;3.40;;;;;;;25.21;32.66;100250.09;4361165;32;32452;-88
2022/05/07 11:28:54;;;;;;;6.00;3.15;;;;;;;24.56;33.96;100246.47;4362845;32;33396;-88
2022/05/07 11:31:34;;;;;;;5.03;3.00;;;;;;;24.65;33.54;100245.59;4358822;32;32869;-88
2022/05/07 11:34:08;;;;;;;8.27;4.28;;;;;;;25.43;33.96;100240.69;4356794;32;33006;-87
2022/05/07 11:36:42;;;;;;;4.20;3.78;;;;;;;24.88;37.76;100242.53;4349257;32;33473;-88
2022/05/07 11:39:18;;;;;;;6.65;4.22;;;;;;;25.57;34.37;100236.63;4343880;32;33236;-87
2022/05/07 11:41:56;;;;;;;4.43;3.70;;;;;;;25.28;35.59;100234.97;4353179;32;34151;-87
2022/05/07 11:47:22;;;;;;;4.57;2.97;;;;;;;24.91;35.24;100236.81;4350358;32;32764;-87
2022/05/07 11:50:06;;;;;;;3.60;3.28;;;;;;;25.06;33.16;100235.31;4332690;32;32380;-87
2022/05/07 11:52:39;;;;;;;4.18;3.15;;;;;;;25.16;33.70;100222.69;4345884;32;33958;-88
2022/05/07 11:55:13;;;;;;;4.95;3.65;;;;;;;25.17;34.05;100223.53;4357434;32;34506;-87
2022/05/07 11:57:44;;;;;;;5.30;4.07;;;;;;;25.25;35.34;100221.75;4355902;32;34109;-87
2022/05/07 12:00:29;;;;;;;11.40;4.55;;;;;;;25.37;34.94;100213.44;4361079;32;32214;-87
2022/05/07 12:03:02;;;;;;;10.27;3.92;;;;;;;25.72;33.77;100212.59;4355056;32;34732;-87
2022/05/07 12:05:42;;;;;;;5.22;3.80;;;;;;;25.41;36.22;100220.25;4354715;32;33830;-87
2022/05/07 12:08:23;;;;;;;6.72;3.87;;;;;;;25.51;37.86;100221.88;4345978;32;33148;-87
2022/05/07 12:10:53;;;;;;;7.50;3.60;;;;;;;25.60;36.28;100224.66;4347624;32;32857;-88
2022/05/07 12:13:28;;;;;;;4.40;2.97;;;;;;;25.79;31.69;100213.72;4364355;32;32837;-88
2022/05/07 12:18:59;;;;;;;4.10;3.15;;;;;;;25.26;32.20;100219.91;4352835;32;32306;-84
2022/05/07 12:29:49;;;;;;;4.53;2.70;;;;;;;26.03;31.67;100202.28;4369483;32;33139;-87
2022/05/07 12:35:07;;;;;;;3.25;2.95;;;;;;;26.40;32.47;100195.78;4351690;32;33172;-86
2022/05/07 12:37:40;;;;;;;3.83;3.00;;;;;;;26.18;31.95;100184.44;4340018;32;33346;-88
2022/05/07 12:40:12;;;;;;;4.93;3.15;;;;;;;26.33;32.12;100197.41;4353287;32;32808;-88
2022/05/07 12:42:46;;;;;;;3.55;2.95;;;;;;;25.99;31.46;100198.19;4349529;32;32358;-88